Latest Weather Observations for Renmark Airport

IDS60801

Issued at 1:51 pm CDT Sunday 16 December 2018 (issued every 10 minutes, with the page automatically refreshed every 10 minutes)

About weather observations | Map of weather stations | Latest weather observations for SA | Other Formats
Station Details ID: 024048 Name: RENMARK AERO Lat: -34.20 Lon: 140.68 Height: 31.5 m
Data from the previous 72 hours. | See also: Recent months at Renmark Airport
Date/Time
CDT
Temp
°C
App
Temp
°C
Dew
Point
°C
Rel
Hum
%
Delta-T
°C
Wind Press
QNH
hPa
Press
MSL
hPa
Rain since
9am
mm
Dir  Spd
km/h
Gust
km/h
Spd
kts
Gust
kts
16/01:30pm 25.6 22.8 14.4 50 6.7 WSW 22 33 12 18 1006.7 1006.6 0.0
16/01:00pm 24.8 22.1 14.6 53 6.1 WSW 22 32 12 17 1006.9 1006.8 0.0
16/12:30pm 24.3 21.9 14.4 54 5.9 W 20 32 11 17 1007.2 1007.1 0.0
16/12:00pm 24.8 23.0 15.4 56 5.7 WSW 19 26 10 14 1007.2 1007.1 0.0
16/11:30am 22.7 20.3 14.5 60 4.8 WSW 20 30 11 16 1007.2 1007.1 0.0
16/11:00am 22.2 20.0 14.8 63 4.4 WSW 20 32 11 17 1007.2 1007.1 0.0
16/10:30am 22.1 19.5 15.0 64 4.2 W 22 32 12 17 1007.2 1007.1 0.0
16/10:00am 21.7 18.8 15.1 66 3.9 W 24 33 13 18 1007.0 1006.9 0.0
16/09:30am 21.1 18.1 14.7 67 3.8 W 24 32 13 17 1006.9 1006.8 0.0
16/09:00am 20.8 17.1 15.1 70 3.4 W 28 35 15 19 1006.8 1006.7 0.0
16/08:30am 19.8 16.9 15.0 74 2.8 W 24 32 13 17 1006.9 1006.8 0.0
16/08:00am 19.4 15.6 14.6 74 2.8 W 28 37 15 20 1006.7 1006.6 0.0
16/07:30am 19.4 17.4 14.9 75 2.6 W 19 26 10 14 1006.2 1006.1 0.0
16/07:00am 17.8 16.8 14.7 82 1.8 WNW 13 19 7 10 1006.1 1006.0 0.0
16/06:30am 16.1 15.9 14.6 91 0.9 WNW 9 11 5 6 1005.7 1005.6 0.0
16/06:00am 15.9 15.6 14.4 91 0.9 W 9 9 5 5 1005.3 1005.2 0.0
16/05:30am 16.0 15.6 14.2 89 1.0 WNW 9 11 5 6 1005.0 1004.9 0.0
16/05:00am 16.0 15.6 14.0 88 1.1 W 9 13 5 7 1004.8 1004.7 0.0
16/04:30am 16.3 15.5 14.0 86 1.3 WSW 11 13 6 7 1004.4 1004.3 0.0
16/04:00am 16.6 15.3 13.7 83 1.6 WSW 13 17 7 9 1004.5 1004.4 0.0
16/03:30am 15.9 15.1 12.8 82 1.7 W 9 11 5 6 1004.2 1004.1 0.0
16/03:00am 16.4 15.2 12.9 80 2.0 W 11 17 6 9 1003.8 1003.7 0.0
16/02:30am 16.5 15.7 13.0 80 2.0 WSW 9 11 5 6 1003.6 1003.5 0.0
16/02:00am 17.1 17.2 12.8 76 2.4 SW 4 7 2 4 1003.7 1003.6 0.0
16/01:30am 18.1 17.6 12.8 71 3.0 SSE 7 11 4 6 1003.8 1003.7 0.0
16/01:00am 18.9 17.3 12.9 68 3.4 SSE 13 17 7 9 1004.1 1004.0 0.0
16/12:30am 19.7 18.1 12.7 64 4.0 SE 13 19 7 10 1004.2 1004.1 0.0
16/12:00am 21.0 19.7 9.9 49 6.0 SSE 7 9 4 5 1004.3 1004.2 0.0
 
Date/Time
CDT
Temp
°C
App
Temp
°C
Dew
Point
°C
Rel
Hum
%
Delta-T
°C
Wind Press
QNH
hPa
Press
MSL
hPa
Rain since
9am
mm
Dir  Spd
km/h
Gust
km/h
Spd
kts
Gust
kts
15/11:30pm 21.8 19.0 8.7 43 7.0 NW 13 19 7 10 1004.1 1004.0 0.0
15/11:00pm 22.2 19.5 9.0 43 7.0 WNW 13 24 7 13 1004.1 1004.0 0.0
15/10:30pm 21.7 18.8 9.6 46 6.5 NNW 15 20 8 11 1003.6 1003.5 0.0
15/10:00pm 21.4 18.6 9.9 48 6.2 N 15 17 8 9 1003.3 1003.2 0.0
15/09:30pm 21.2 19.2 10.1 49 6.0 NE 11 13 6 7 1003.0 1002.9 0.0
15/09:00pm 21.9 19.4 9.8 46 6.6 NNE 13 15 7 8 1003.0 1002.9 0.0
15/08:30pm 22.1 20.3 10.9 49 6.2 NE 11 13 6 7 1003.1 1003.0 0.0
15/08:00pm 22.8 20.5 8.9 41 7.4 NNE 11 13 6 7 1003.1 1003.0 0.0
15/07:30pm 23.3 20.5 8.6 39 7.9 NNE 13 15 7 8 1003.2 1003.1 0.0
15/07:00pm 23.9 21.1 7.1 34 8.8 NE 11 15 6 8 1003.1 1003.0 0.0
15/06:30pm 24.1 21.8 7.3 34 8.8 ENE 9 15 5 8 1002.9 1002.8 0.0
15/06:00pm 24.5 22.7 7.2 33 9.1 E 6 13 3 7 1002.4 1002.3 0.0
15/05:30pm 24.5 22.0 6.7 32 9.3 S 9 17 5 9 1002.1 1002.0 0.0
15/05:00pm 24.6 22.7 6.8 32 9.3 SW 6 13 3 7 1002.3 1002.2 0.0
15/04:30pm 24.8 22.5 7.4 33 9.2 SE 9 17 5 9 1002.6 1002.5 0.0
15/04:00pm 24.9 22.1 7.1 32 9.3 ESE 11 19 6 10 1002.9 1002.8 0.0
15/03:30pm 24.1 20.8 6.4 32 9.2 SSE 13 22 7 12 1003.4 1003.3 0.0
15/03:00pm 23.2 20.8 6.9 35 8.5 NE 9 15 5 8 1003.6 1003.5 0.0
15/02:30pm 23.3 21.6 7.4 36 8.3 NE 6 17 3 9 1003.9 1003.8 0.0
15/02:00pm 22.6 20.2 7.2 37 8.0 ENE 9 15 5 8 1004.0 1003.9 0.0
15/01:30pm 22.2 20.6 8.7 42 7.2 SE 7 13 4 7 1004.4 1004.3 0.0
15/01:00pm 22.1 20.3 9.3 44 6.9 E 9 17 5 9 1004.6 1004.5 0.0
15/12:30pm 21.6 19.0 9.5 46 6.5 SE 13 20 7 11 1004.8 1004.7 0.0
15/12:00pm 21.4 19.5 10.6 50 5.9 ESE 11 22 6 12 1005.1 1005.0 0.0
15/11:30am 20.1 18.0 9.9 52 5.5 ENE 11 19 6 10 1005.3 1005.2 0.0
15/11:00am 19.6 17.5 9.8 53 5.2 ESE 11 20 6 11 1005.3 1005.2 0.0
15/10:30am 18.7 17.1 10.3 58 4.5 SE 9 13 5 7 1005.3 1005.2 0.0
15/10:00am 17.6 15.9 10.0 61 4.0 E 9 20 5 11 1005.7 1005.6 0.0
15/09:30am 17.6 16.1 10.5 63 3.8 SE 9 17 5 9 1005.8 1005.7 0.0
15/09:00am 16.3 14.2 9.7 65 3.5 SSE 11 19 6 10 1006.0 1005.9 0.0
15/08:30am 15.8 13.7 9.9 68 3.1 SSE 11 15 6 8 1005.6 1005.5 0.0
15/08:00am 15.3 13.8 10.5 73 2.5 S 9 13 5 7 1005.4 1005.3 0.0
15/07:30am 14.5 13.0 10.5 77 2.1 S 9 13 5 7 1005.3 1005.2 0.0
15/07:00am 13.6 11.2 10.2 80 1.8 S 13 17 7 9 1004.9 1004.8 0.0
15/06:30am 12.3 10.7 10.2 87 1.1 S 9 11 5 6 1004.2 1004.1 0.0
15/06:00am 11.6 9.5 9.9 89 0.9 S 11 13 6 7 1004.0 1003.9 0.0
15/05:30am 11.8 9.8 10.0 89 0.9 SSW 11 17 6 9 1003.7 1003.6 0.0
15/05:00am 12.0 10.3 9.9 87 1.1 SSW 9 15 5 8 1003.5 1003.4 0.0
15/04:30am 12.1 10.1 10.2 88 1.0 SSW 11 17 6 9 1003.4 1003.3 0.0
15/04:00am 12.0 10.0 10.2 89 0.9 SSW 11 13 6 7 1003.4 1003.3 0.0
15/03:30am 12.2 10.2 10.3 88 1.0 S 11 17 6 9 1003.2 1003.1 0.0
15/03:00am 12.1 10.5 10.2 88 1.0 SSW 9 13 5 7 1003.2 1003.1 0.0
15/02:30am 12.2 10.6 10.3 88 1.0 SSW 9 13 5 7 1003.5 1003.4 0.0
15/02:00am 12.4 10.1 10.3 87 1.1 SSW 13 15 7 8 1003.8 1003.7 0.0
15/01:30am 12.4 10.8 10.3 87 1.1 S 9 11 5 6 1003.9 1003.8 0.0
15/01:00am 12.1 10.5 10.3 89 0.9 S 9 11 5 6 1003.9 1003.8 0.0
15/12:30am 12.5 11.5 10.2 86 1.2 S 6 7 3 4 1004.1 1004.0 0.0
15/12:00am 12.8 11.3 10.5 86 1.2 SSE 9 13 5 7 1004.5 1004.4 0.0
 
Date/Time
CDT
Temp
°C
App
Temp
°C
Dew
Point
°C
Rel
Hum
%
Delta-T
°C
Wind Press
QNH
hPa
Press
MSL
hPa
Rain since
9am
mm
Dir  Spd
km/h
Gust
km/h
Spd
kts
Gust
kts
14/11:30pm 13.1 11.9 10.3 83 1.5 SSE 7 11 4 6 1005.0 1004.9 0.0
14/11:00pm 14.0 12.8 10.2 78 2.0 S 7 9 4 5 1005.1 1005.0 0.0
14/10:30pm 14.7 13.2 10.5 76 2.2 SE 9 11 5 6 1004.8 1004.7 0.0
14/10:00pm 15.3 12.6 10.3 72 2.6 SE 15 20 8 11 1004.7 1004.6 0.0
14/09:30pm 15.9 12.7 9.8 67 3.2 SE 17 22 9 12 1004.7 1004.6 0.0
14/09:00pm 16.6 12.7 9.5 63 3.7 SE 20 30 11 16 1004.3 1004.2 0.0
14/08:30pm 17.1 14.4 10.5 65 3.5 SSE 15 24 8 13 1003.5 1003.4 0.0
14/08:00pm 17.6 13.9 10.0 61 4.0 SE 20 28 11 15 1003.6 1003.5 0.0
14/07:30pm 17.3 13.2 10.2 63 3.8 SE 22 32 12 17 1003.3 1003.2 0.0
14/07:00pm 18.6 13.2 9.4 55 4.8 SE 28 41 15 22 1002.6 1002.5 0.0
14/06:30pm 18.6 13.0 8.8 53 5.1 SE 28 35 15 19 1002.3 1002.2 0.0
14/06:00pm 19.4 13.9 9.3 52 5.4 SE 28 41 15 22 1002.0 1001.9 0.0
14/05:30pm 20.6 14.2 9.5 49 6.0 SE 33 46 18 25 1001.6 1001.5 0.0
14/05:00pm 19.3 13.5 9.5 53 5.2 SE 30 43 16 23 1001.5 1001.4 0.0
14/04:30pm 19.7 14.5 10.1 54 5.2 SE 28 39 15 21 1001.4 1001.3 0.0
14/04:00pm 19.2 13.5 9.9 55 5.0 SSE 30 39 16 21 1001.4 1001.3 0.0
14/03:30pm 18.9 13.2 9.7 55 4.9 SSE 30 39 16 21 1001.3 1001.2 0.0
14/03:00pm 18.9 12.8 9.9 56 4.8 SSE 32 48 17 26 1001.3 1001.2 0.0
14/02:30pm 17.8 11.7 9.9 60 4.2 SSE 32 44 17 24 1001.4 1001.3 0.0
14/02:00pm 18.7 12.0 9.5 55 4.9 SSE 35 52 19 28 1001.1 1001.0 0.0
14/01:30pm 18.6 11.6 9.9 57 4.7 SSE 37 57 20 31 1000.9 1000.8 0.0
14/01:27pm 18.4 11.7 9.5 56 4.7 SSE 35 57 19 31 1000.7 1000.6 0.0
14/01:00pm 18.1 11.6 10.2 60 4.2 S 35 50 19 27 1000.7 1000.6 0.0
14/12:42pm 18.6 12.0 9.9 57 4.6 S 35 54 19 29 1000.6 1000.5 0.0
14/12:30pm 18.2 11.9 9.8 58 4.5 S 33 46 18 25 1000.6 1000.5 0.0
14/12:00pm 18.2 10.7 9.5 57 4.6 SSE 39 52 21 28 1000.5 1000.4 0.0
14/11:30am 18.2 11.6 10.1 59 4.3 S 35 54 19 29 1000.3 1000.2 0.0
14/11:12am 17.5 11.2 9.7 60 4.1 S 33 52 18 28 1000.3 1000.2 0.0
14/11:00am 18.1 12.0 10.5 61 4.1 SSE 33 50 18 27 1000.5 1000.4 0.0
14/10:30am 17.1 10.4 10.9 67 3.4 S 37 52 20 28 1000.5 1000.4 0.0
14/10:00am 16.3 10.2 10.6 69 3.0 S 33 56 18 30 1000.3 1000.2 0.0
14/09:59am 16.2 10.1 10.3 68 3.1 S 33 56 18 30 1000.3 1000.2 0.0
14/09:30am 16.4 11.0 10.9 70 3.0 S 30 46 16 25 1000.1 1000.0 0.0
14/09:06am 16.1 11.1 11.1 72 2.7 SSE 28 46 15 25 1000.2 1000.1 0.0
14/09:00am 16.0 11.2 11.8 76 2.3 S 28 41 15 22 1000.1 1000.0 29.8
14/08:30am 15.1 9.9 11.5 79 1.9 SSE 30 44 16 24 999.8 999.7 29.8
14/08:00am 15.0 10.0 12.1 83 1.6 S 30 41 16 22 999.3 999.2 29.8
14/07:54am 14.9 10.3 12.4 85 1.4 S 28 39 15 21 999.3 999.2 29.8
14/07:40am 15.0 11.9 13.5 91 0.8 S 22 32 12 17 999.0 998.9 29.8
14/07:34am 14.6 11.1 13.3 92 0.7 S 24 35 13 19 999.1 999.0 29.8
14/07:30am 14.6 11.1 13.3 92 0.7 S 24 35 13 19 999.0 998.9 29.8
14/07:10am 14.5 10.1 13.0 91 0.8 SSW 28 46 15 25 998.7 998.6 29.8
14/07:00am 14.7 10.8 13.2 91 0.8 SSW 26 41 14 22 998.5 998.4 29.8
14/06:30am 14.4 11.6 13.3 93 0.6 SW 20 28 11 15 998.2 998.1 29.6
14/06:00am 13.6 9.5 12.7 94 0.5 WSW 26 39 14 21 997.8 997.7 29.6
14/05:30am 12.9 8.6 12.0 94 0.5 WSW 26 37 14 20 997.5 997.4 29.6
14/05:00am 12.5 9.2 11.7 95 0.4 WSW 20 35 11 19 998.1 998.0 28.2
14/04:52am 12.5 7.7 11.6 94 0.5 WSW 28 39 15 21 998.3 998.2 27.2
14/04:30am 12.4 7.9 11.5 94 0.5 WSW 26 44 14 24 998.2 998.1 25.6
14/04:00am 12.2 6.5 11.3 94 0.5 WSW 32 46 17 25 998.1 998.0 22.2
14/03:42am 11.9 6.0 11.0 94 0.5 WSW 33 46 18 25 998.4 998.3 20.2
14/03:30am 11.8 5.5 10.9 94 0.5 WSW 35 48 19 26 998.7 998.6 19.0
14/03:07am 11.8 6.0 10.9 94 0.5 WSW 32 44 17 24 999.7 999.6 15.8
14/03:00am 11.8 5.5 10.9 94 0.5 WSW 35 50 19 27 999.7 999.6 15.0
14/02:30am 11.7 5.3 10.8 94 0.5 WSW 35 48 19 26 999.9 999.8 13.8
14/02:00am 11.7 5.3 10.6 93 0.6 WSW 35 54 19 29 1000.8 1000.7 11.0
14/01:30am 11.7 4.5 10.6 93 0.6 WSW 39 56 21 30 1001.2 1001.1 9.2
14/01:07am 11.6 5.1 10.5 93 0.6 WSW 35 56 19 30 1001.5 1001.4 9.0
14/01:00am 11.6 5.2 10.7 94 0.5 WSW 35 46 19 25 1001.8 1001.7 9.0
14/12:30am 11.5 5.4 10.4 93 0.6 WSW 33 54 18 29 1002.7 1002.6 7.6
14/12:21am 11.5 5.4 10.6 94 0.5 WSW 33 54 18 29 1003.0 1002.9 7.2
14/12:00am 11.5 5.6 10.4 93 0.6 WSW 32 48 17 26 1003.5 1003.4 6.4
 
Date/Time
CDT
Temp
°C
App
Temp
°C
Dew
Point
°C
Rel
Hum
%
Delta-T
°C
Wind Press
QNH
hPa
Press
MSL
hPa
Rain since
9am
mm
Dir  Spd
km/h
Gust
km/h
Spd
kts
Gust
kts
13/11:41pm 11.4 5.2 10.1 92 0.7 WSW 33 50 18 27 1003.9 1003.8 6.0
13/11:38pm 11.4 5.2 10.1 92 0.7 WSW 33 50 18 27 1004.0 1003.9 6.0
13/11:30pm 11.4 5.2 10.1 92 0.7 WSW 33 46 18 25 1004.1 1004.0 5.8
13/11:14pm 11.6 5.0 9.9 89 0.9 WSW 35 54 19 29 1004.1 1004.0 4.8
13/11:09pm 11.6 5.5 9.9 89 0.9 WSW 32 50 17 27 1004.1 1004.0 4.8
13/11:05pm 11.6 5.5 9.9 89 0.9 WSW 32 48 17 26 1004.2 1004.1 4.8
13/11:00pm 11.6 5.0 9.9 89 0.9 WSW 35 50 19 27 1004.2 1004.1 4.8
13/10:30pm 11.7 5.6 9.8 88 1.0 W 32 44 17 24 1004.7 1004.6 4.8
13/10:00pm 12.5 6.0 9.1 80 1.7 WSW 33 54 18 29 1005.7 1005.6 4.2
13/09:44pm 12.7 6.4 9.0 78 1.9 WSW 32 50 17 27 1005.6 1005.5 4.2
13/09:30pm 12.5 6.0 8.8 78 1.9 WSW 33 50 18 27 1005.8 1005.7 4.0
13/09:20pm 12.6 6.0 8.7 77 1.9 WSW 33 52 18 28 1005.9 1005.8 4.0
13/09:00pm 13.0 6.4 8.5 74 2.3 SW 33 50 18 27 1005.9 1005.8 4.0
13/08:30pm 13.6 5.7 8.0 69 2.8 SW 39 63 21 34 1005.8 1005.7 4.0
13/08:00pm 14.6 6.9 6.9 60 3.8 SW 37 69 20 37 1005.8 1005.7 4.0
13/07:30pm 14.9 5.9 6.5 57 4.1 SW 43 65 23 35 1005.4 1005.3 4.0
13/07:00pm 15.8 6.3 6.5 54 4.5 SW 46 67 25 36 1004.9 1004.8 4.0
13/06:30pm 16.0 7.1 6.7 54 4.6 SW 43 67 23 36 1004.5 1004.4 4.0
13/06:00pm 16.4 7.4 7.1 54 4.6 SW 44 65 24 35 1004.0 1003.9 4.0
13/05:30pm 15.8 7.2 8.3 61 3.8 SW 43 61 23 33 1004.0 1003.9 4.0
13/05:00pm 16.8 8.2 8.2 57 4.4 SW 43 63 23 34 1004.0 1003.9 4.0
13/04:40pm 16.6 7.4 7.8 56 4.4 SW 46 69 25 37 1003.7 1003.6 4.0
13/04:30pm 17.1 8.0 8.5 57 4.4 SW 46 61 25 33 1003.7 1003.6 4.0
13/04:00pm 15.9 8.4 9.3 65 3.4 SW 39 70 21 38 1003.6 1003.5 4.0
13/03:30pm 16.9 10.1 9.3 61 4.0 SW 35 54 19 29 1003.7 1003.6 4.0
13/03:00pm 17.1 9.5 9.0 59 4.2 SW 39 65 21 35 1003.6 1003.5 4.0
13/02:30pm 14.1 7.5 11.3 83 1.5 WSW 37 57 20 31 1004.4 1004.3 4.0
13/02:00pm 15.7 8.7 10.0 69 3.0 WSW 37 56 20 30 1004.3 1004.2 4.0

Other Formats:

Comma delimited format used in spreadsheet applications
http://www.bom.gov.au/fwo/IDS60801/IDS60801.95687.axf

JavaScript Object Notation format (JSON) in row-major order
http://www.bom.gov.au/fwo/IDS60801/IDS60801.95687.json